Saturday, May 28, 2016, 11:55 AM EDT

KFDK, Frederick, Frederick Municipal Airport

Location: Frederick, MD, United States Lat: 39.417
Local Time: 11:55 AM EDT (15:55 GMT) Lon: -77.374
Time Zone: US/Eastern Elev: 301 ft

Show me the last for .
Show Decoded

2016-05-28 10:47 METAR KFDK 281447Z 23006KT 10SM CLR 27/22 A3018 =
2016-05-28 09:47 METAR KFDK 281347Z 20003KT 10SM SKC 26/22 A3018 =
2016-05-28 08:47 METAR KFDK 281247Z 21004KT 7SM HZ SKC 24/21 A3018 =
2016-05-28 07:45 METAR KFDK 281145Z 00000KT 10SM SKC 22/21 A3016 =
2016-05-28 06:50 METAR KFDK 281050Z 00000KT 5SM HZ SKC 19/19 A3015 =
2016-05-28 06:15 METAR KFDK 281015Z AUTO 00000KT 4SM BR CLR 18/18 A3015 RMK AO2 =
2016-05-28 05:55 METAR KFDK 280955Z AUTO 00000KT 7SM CLR 18/18 A3014 RMK AO2 LTG DSNT E =
2016-05-28 05:35 METAR KFDK 280935Z AUTO 00000KT 7SM CLR 18/18 A3014 RMK AO2 =
2016-05-28 05:15 METAR KFDK 280915Z AUTO 14003KT 7SM CLR 19/19 A3013 RMK AO2 =
2016-05-28 04:55 METAR KFDK 280855Z AUTO 16003KT 10SM CLR 19/19 A3013 RMK AO2 =
2016-05-28 04:35 METAR KFDK 280835Z AUTO 15003KT 10SM CLR 19/19 A3012 RMK AO2 =
2016-05-28 04:15 METAR KFDK 280815Z AUTO 00000KT 10SM CLR 20/20 A3012 RMK AO2 =
2016-05-28 03:55 METAR KFDK 280755Z AUTO 00000KT 10SM CLR 20/20 A3011 RMK AO2 =
2016-05-28 03:35 METAR KFDK 280735Z AUTO 00000KT 10SM CLR 19/19 A3011 RMK AO2 =
2016-05-28 03:15 METAR KFDK 280715Z AUTO 16003KT 10SM CLR 20/20 A3010 RMK AO2 =
2016-05-28 02:55 METAR KFDK 280655Z AUTO 15004KT 10SM CLR 20/20 A3010 RMK AO2 =
2016-05-28 02:35 METAR KFDK 280635Z AUTO 00000KT 10SM CLR 21/20 A3011 RMK AO2 =
2016-05-28 02:15 METAR KFDK 280615Z AUTO 00000KT 10SM CLR 20/20 A3011 RMK AO2 =
2016-05-28 01:55 METAR KFDK 280555Z AUTO 00000KT 10SM CLR 21/20 A3010 RMK AO2 =
2016-05-28 01:35 METAR KFDK 280535Z AUTO 00000KT 10SM CLR 21/20 A3010 RMK AO2 =
2016-05-28 01:15 METAR KFDK 280515Z AUTO 23005KT 10SM CLR 20/20 A3010 RMK AO2 =
2016-05-28 00:55 METAR KFDK 280455Z AUTO 19003KT 10SM CLR 21/20 A3010 RMK AO2 =
2016-05-28 00:35 METAR KFDK 280435Z AUTO 00000KT 10SM CLR 21/20 A3011 RMK AO2 =
2016-05-28 00:15 METAR KFDK 280415Z AUTO 00000KT 10SM CLR 22/20 A3011 RMK AO2 =
2016-05-27 23:55 METAR KFDK 280355Z AUTO 00000KT 10SM CLR 21/20 A3011 RMK AO2 =
2016-05-27 23:35 METAR KFDK 280335Z AUTO 17003KT 10SM CLR 23/20 A3011 RMK AO2 =
2016-05-27 23:15 METAR KFDK 280315Z AUTO 17003KT 10SM CLR 23/20 A3011 RMK AO2 =
2016-05-27 22:50 METAR KFDK 280250Z AUTO 17003KT 10SM CLR 23/20 A3010 RMK AO2 =
2016-05-27 22:30 METAR KFDK 280230Z AUTO 14003KT 10SM CLR 23/20 A3010 RMK AO2 =
2016-05-27 22:10 METAR KFDK 280210Z AUTO 00000KT 10SM SCT050 SCT060 24/20 A3011 RMK AO2 =
2016-05-27 21:50 METAR KFDK 280150Z AUTO 00000KT 10SM BKN050 BKN070 25/20 A3010 RMK AO2 =
2016-05-27 21:30 METAR KFDK 280130Z AUTO 00000KT 10SM SCT050 25/20 A3010 RMK AO2 =
2016-05-27 21:10 METAR KFDK 280110Z AUTO 05003KT 10SM SCT050 SCT065 SCT080 25/20 A3010 RMK AO2
                 LTG DSNT E =
2016-05-27 20:50 METAR KFDK 280050Z AUTO 36005KT 10SM BKN055 BKN065 OVC080 26/20 A3009 RMK AO2 =
2016-05-27 20:30 METAR KFDK 280030Z AUTO 02006KT 10SM OVC055 26/21 A3008 RMK AO2 =
2016-05-27 19:50 METAR KFDK 272350Z 21003KT 10SM SKC 26/23 A3006 =
2016-05-27 18:48 METAR KFDK 272248Z 18006KT 10SM SKC 29/22 A3005 RMK LTG DSNT W AND NW =
2016-05-27 17:48 METAR KFDK 272148Z 17006KT 10SM SCT055 32/22 A3003 =
2016-05-27 16:48 METAR KFDK 272048Z 22006KT 10SM SKC 32/22 A3005 =
2016-05-27 15:48 METAR KFDK 271948Z 18004KT 10SM SKC 32/22 A3006 =
2016-05-27 14:48 METAR KFDK 271848Z 20008G14KT 10SM SKC 32/22 A3007 =
2016-05-27 13:47 METAR KFDK 271747Z 21004KT 10SM SKC 31/22 A3008 =
2016-05-27 12:49 METAR KFDK 271649Z 22004KT 10SM SCT044 31/22 A3010 =

Support USWX by starting your Amazon purchase here.